createdAt,value
2018-07-06T00:01:24.295Z,2.60
2018-07-06T00:04:04.086Z,2.47
2018-07-06T00:06:43.744Z,2.20
2018-07-06T00:09:23.571Z,2.50
2018-07-06T00:12:03.320Z,2.40
2018-07-06T00:14:43.164Z,2.10
2018-07-06T00:17:22.831Z,2.10
2018-07-06T00:20:02.637Z,1.90
2018-07-06T00:22:42.299Z,1.90
2018-07-06T00:25:22.067Z,1.87
2018-07-06T00:28:01.774Z,1.90
2018-07-06T00:30:41.366Z,2.10
2018-07-06T00:33:21.051Z,1.90
2018-07-06T00:36:01.388Z,1.87
2018-07-06T00:38:41.085Z,1.83
2018-07-06T00:41:20.879Z,2.10
2018-07-06T00:44:00.659Z,2.10
2018-07-06T00:46:40.448Z,1.83
2018-07-06T00:49:20.327Z,1.83
2018-07-06T00:52:00.053Z,2.07
2018-07-06T00:54:39.896Z,2.20
2018-07-06T00:57:20.121Z,2.00
2018-07-06T00:59:59.994Z,1.93
2018-07-06T01:02:39.783Z,2.10
2018-07-06T01:05:19.532Z,1.90
2018-07-06T01:07:59.199Z,1.97
2018-07-06T01:10:38.872Z,2.00
2018-07-06T01:13:18.770Z,2.17
2018-07-06T01:15:58.363Z,2.00
2018-07-06T01:18:38.137Z,1.90
2018-07-06T01:21:17.839Z,2.10
2018-07-06T01:23:57.600Z,1.90
2018-07-06T01:26:37.427Z,1.60
2018-07-06T01:29:17.210Z,2.00
2018-07-06T01:31:57.044Z,1.80
2018-07-06T01:34:36.782Z,1.80
2018-07-06T01:37:16.571Z,1.57
2018-07-06T01:39:56.296Z,1.60
2018-07-06T01:42:36.131Z,1.30
2018-07-06T01:45:15.867Z,1.70
2018-07-06T01:47:55.643Z,1.60
2018-07-06T01:50:35.438Z,1.43
2018-07-06T01:53:15.391Z,1.57
2018-07-06T01:56:01.104Z,1.40
2018-07-06T01:58:40.988Z,1.43
2018-07-06T02:01:20.565Z,1.40
2018-07-06T02:04:00.311Z,1.30
2018-07-06T02:06:39.974Z,1.40
2018-07-06T02:09:19.812Z,1.60
2018-07-06T02:11:59.555Z,1.67
2018-07-06T02:14:39.324Z,1.50
2018-07-06T02:17:19.116Z,1.40
2018-07-06T02:19:58.827Z,1.37
2018-07-06T02:22:38.632Z,1.40
2018-07-06T02:25:18.316Z,1.30
2018-07-06T02:27:58.023Z,1.57
2018-07-06T02:30:37.826Z,1.30
2018-07-06T02:33:17.655Z,1.70
2018-07-06T02:35:57.361Z,1.37
2018-07-06T02:38:37.031Z,1.27
2018-07-06T02:41:16.771Z,1.40
2018-07-06T02:43:56.474Z,1.63
2018-07-06T02:46:36.277Z,1.30
2018-07-06T02:49:16.022Z,1.50
2018-07-06T02:51:55.651Z,1.60
2018-07-06T02:54:35.411Z,1.50
2018-07-06T02:57:15.061Z,1.67
2018-07-06T02:59:54.735Z,1.43
2018-07-06T03:02:34.541Z,1.40
2018-07-06T03:05:14.395Z,1.37
2018-07-06T03:07:54.071Z,1.60
2018-07-06T03:10:33.672Z,1.60
2018-07-06T03:13:13.332Z,1.60
2018-07-06T03:15:53.123Z,1.40
2018-07-06T03:18:32.943Z,1.60
2018-07-06T03:21:12.732Z,1.70
2018-07-06T03:23:52.532Z,1.47
2018-07-06T03:26:32.388Z,1.37
2018-07-06T03:29:12.138Z,1.73
2018-07-06T03:31:51.900Z,1.57
2018-07-06T03:34:31.598Z,1.50
2018-07-06T03:37:11.375Z,1.60
2018-07-06T03:39:51.093Z,1.50
2018-07-06T03:42:30.939Z,1.37
2018-07-06T03:45:10.687Z,1.80
2018-07-06T03:47:50.467Z,1.40
2018-07-06T03:50:30.260Z,1.50
2018-07-06T03:53:10.041Z,1.50
2018-07-06T03:55:49.868Z,1.50
2018-07-06T03:58:29.656Z,1.50
2018-07-06T04:01:09.553Z,1.40
2018-07-06T04:03:49.156Z,1.80
2018-07-06T04:06:28.783Z,1.60
2018-07-06T04:09:08.632Z,1.50
2018-07-06T04:11:48.237Z,1.30
2018-07-06T04:14:28.036Z,1.40
2018-07-06T04:17:07.784Z,1.33
2018-07-06T04:19:47.531Z,1.30
2018-07-06T04:22:27.330Z,1.33
2018-07-06T04:25:06.977Z,1.20
2018-07-06T04:27:46.770Z,1.33
2018-07-06T04:30:26.601Z,1.60
2018-07-06T04:33:06.482Z,1.23
2018-07-06T04:35:46.191Z,1.40
2018-07-06T04:38:26.006Z,1.30
2018-07-06T04:41:05.887Z,1.63
2018-07-06T04:43:45.670Z,1.70
2018-07-06T04:46:25.244Z,1.67
2018-07-06T04:49:05.028Z,1.60
2018-07-06T04:51:44.734Z,1.57
2018-07-06T04:54:24.687Z,1.70
2018-07-06T04:57:04.262Z,1.80
2018-07-06T04:59:44.040Z,1.90
2018-07-06T05:02:23.679Z,1.90
2018-07-06T05:05:03.462Z,1.90
2018-07-06T05:07:44.074Z,2.00
2018-07-06T05:10:23.905Z,2.07
2018-07-06T05:13:03.616Z,1.87
2018-07-06T05:15:43.363Z,1.83
2018-07-06T05:18:23.267Z,2.30
2018-07-06T05:21:02.972Z,1.97
2018-07-06T05:23:42.694Z,1.77
2018-07-06T05:26:22.287Z,1.90
2018-07-06T05:29:01.763Z,2.10
2018-07-06T05:31:41.524Z,1.80
2018-07-06T05:34:21.375Z,2.50
2018-07-06T05:37:01.132Z,2.10
2018-07-06T05:39:41.141Z,1.80
2018-07-06T05:42:20.843Z,2.10
2018-07-06T05:45:00.499Z,2.00
2018-07-06T05:47:40.224Z,1.90
2018-07-06T05:50:19.947Z,2.43
2018-07-06T05:52:59.656Z,2.33
2018-07-06T05:55:39.337Z,2.40
2018-07-06T05:58:19.132Z,2.30
2018-07-06T06:00:58.964Z,2.50
2018-07-06T06:03:38.740Z,2.60
2018-07-06T06:06:18.520Z,2.57
2018-07-06T06:08:45.796Z,2.70
2018-07-06T06:11:14.143Z,2.77
2018-07-06T06:13:42.524Z,2.53
2018-07-06T06:16:10.836Z,2.73
2018-07-06T06:18:39.593Z,2.90
2018-07-06T06:21:08.300Z,2.77
2018-07-06T06:23:36.680Z,2.20
2018-07-06T06:26:05.121Z,2.97
2018-07-06T06:28:33.676Z,3.00
2018-07-06T06:31:02.629Z,2.83
2018-07-06T06:33:31.190Z,2.50
2018-07-06T06:35:59.541Z,2.90
2018-07-06T06:38:27.925Z,2.50
2018-07-06T06:40:56.431Z,2.57
2018-07-06T06:43:24.831Z,3.07
2018-07-06T06:45:53.357Z,4.87
2018-07-06T06:48:21.905Z,3.10
2018-07-06T06:50:50.844Z,4.03
2018-07-06T06:53:19.453Z,4.87
2018-07-06T06:55:47.957Z,4.70
2018-07-06T06:58:16.380Z,4.10
2018-07-06T07:00:44.759Z,3.63
2018-07-06T07:03:13.143Z,4.13
2018-07-06T07:05:41.522Z,2.67
2018-07-06T07:08:09.964Z,3.10
2018-07-06T07:10:38.348Z,4.07
2018-07-06T07:13:06.762Z,4.83
2018-07-06T07:15:35.139Z,3.03
2018-07-06T07:18:03.572Z,2.90
2018-07-06T07:20:32.538Z,3.33
2018-07-06T07:23:00.923Z,3.10
2018-07-06T07:25:29.780Z,3.00
2018-07-06T07:27:58.161Z,3.03
2018-07-06T07:30:26.505Z,2.90
2018-07-06T07:32:54.903Z,3.00
2018-07-06T07:35:23.860Z,3.10
2018-07-06T10:58:01.918Z,6.10
2018-07-06T11:00:30.260Z,5.50
2018-07-06T11:02:58.623Z,5.87
2018-07-06T11:05:27.003Z,5.83
2018-07-06T11:07:55.332Z,6.03
2018-07-06T11:10:23.648Z,5.27
2018-07-06T11:12:51.986Z,5.63
2018-07-06T11:15:20.328Z,5.60
2018-07-06T11:17:48.684Z,6.00
2018-07-06T11:20:17.095Z,5.70
2018-07-06T11:22:45.444Z,5.70
2018-07-06T11:25:13.787Z,5.07
2018-07-06T11:27:42.123Z,5.07
2018-07-06T11:30:10.504Z,4.70
2018-07-06T11:32:38.842Z,4.83
2018-07-06T11:35:07.327Z,5.10
2018-07-06T11:37:35.827Z,4.63
2018-07-06T11:40:04.190Z,4.63
2018-07-06T11:42:32.567Z,4.00
2018-07-06T11:45:00.994Z,3.60
2018-07-06T11:47:29.286Z,3.80
2018-07-06T11:49:57.625Z,3.90
2018-07-06T11:52:25.952Z,4.30
2018-07-06T11:54:54.365Z,3.20
2018-07-06T11:57:22.739Z,3.30
2018-07-06T11:59:51.172Z,3.80
2018-07-06T12:02:19.520Z,3.40
2018-07-06T12:04:47.860Z,3.37
2018-07-06T12:07:16.211Z,3.63
2018-07-06T12:09:44.532Z,3.40
2018-07-06T12:12:12.863Z,3.27
2018-07-06T12:14:41.188Z,3.37
2018-07-06T12:17:09.536Z,3.97
2018-07-06T12:19:37.856Z,3.40
2018-07-06T12:22:06.228Z,3.60
2018-07-06T12:24:34.573Z,3.60
2018-07-06T12:27:02.904Z,3.23
2018-07-06T12:29:31.252Z,3.50
2018-07-06T12:31:59.664Z,3.33
2018-07-06T12:34:27.985Z,3.40
2018-07-06T12:36:56.606Z,3.40
2018-07-06T12:39:24.947Z,3.30
2018-07-06T12:41:53.282Z,3.00
2018-07-06T12:44:21.618Z,2.97
2018-07-06T12:46:49.951Z,2.70
2018-07-06T12:49:18.291Z,2.90
2018-07-06T12:51:46.624Z,2.90
2018-07-06T12:54:15.150Z,2.37
2018-07-06T12:56:43.489Z,2.57
2018-07-06T12:59:11.819Z,2.20
2018-07-06T13:03:03.614Z,2.40
2018-07-06T13:05:31.965Z,2.07
2018-07-06T13:08:00.304Z,2.10
2018-07-06T13:10:28.737Z,2.30
2018-07-06T13:12:57.036Z,2.33
2018-07-06T13:15:25.384Z,2.07
2018-07-06T13:17:53.717Z,2.10
2018-07-06T13:20:22.069Z,1.80
2018-07-06T13:22:50.412Z,1.70
2018-07-06T13:25:18.748Z,1.70
2018-07-06T13:27:47.064Z,1.70
2018-07-06T13:30:15.442Z,1.83
2018-07-06T13:32:43.827Z,1.77
2018-07-06T13:35:12.238Z,2.00
2018-07-06T13:37:40.617Z,1.83
2018-07-06T13:40:09.000Z,1.70
2018-07-06T13:42:37.371Z,1.60
2018-07-06T13:45:06.197Z,1.70
2018-07-06T13:47:34.666Z,1.77
2018-07-06T13:50:03.128Z,1.67
2018-07-06T13:52:31.571Z,1.90
2018-07-06T13:54:59.943Z,2.00
2018-07-06T13:57:28.307Z,1.83
2018-07-06T13:59:56.712Z,1.67
2018-07-06T14:02:25.088Z,1.67
2018-07-06T14:04:53.453Z,1.67
2018-07-06T14:07:21.884Z,1.80
2018-07-06T14:09:50.329Z,1.77
2018-07-06T14:12:18.845Z,1.70
2018-07-06T14:14:47.629Z,1.80
2018-07-06T14:17:16.024Z,1.77
2018-07-06T14:19:44.428Z,1.47
2018-07-06T14:22:13.482Z,1.50
2018-07-06T14:24:42.347Z,1.87
2018-07-06T14:27:11.367Z,1.57
2018-07-06T14:29:39.819Z,1.40
2018-07-06T14:32:08.258Z,1.43
2018-07-06T14:34:36.698Z,1.40
2018-07-06T14:37:05.049Z,1.57
2018-07-06T14:39:33.985Z,1.37
2018-07-06T14:42:02.399Z,1.60
2018-07-06T14:44:31.472Z,1.43
2018-07-06T14:47:00.031Z,1.77
2018-07-06T14:49:28.380Z,1.33
2018-07-06T14:51:57.765Z,1.50
2018-07-06T14:54:26.515Z,1.40
2018-07-06T14:56:54.967Z,1.37
2018-07-06T14:59:23.441Z,1.43
2018-07-06T15:01:51.774Z,1.50
2018-07-06T15:04:20.116Z,1.30
2018-07-06T15:06:48.579Z,1.60
2018-07-06T15:09:16.899Z,1.60
2018-07-06T15:11:45.375Z,1.70
2018-07-06T15:14:13.752Z,1.50
2018-07-06T15:16:42.069Z,1.67
2018-07-06T15:19:10.419Z,1.70
2018-07-06T15:21:38.817Z,1.70
2018-07-06T15:24:07.319Z,1.43
2018-07-06T15:26:35.703Z,2.50
2018-07-06T15:29:04.547Z,1.70
2018-07-06T15:31:32.989Z,1.30
2018-07-06T15:34:01.399Z,1.40
2018-07-06T15:36:29.731Z,1.40
2018-07-06T15:38:58.096Z,1.50
2018-07-06T15:41:26.436Z,1.70
2018-07-06T15:43:54.769Z,1.43
2018-07-06T15:46:23.129Z,1.53
2018-07-06T15:48:51.467Z,1.60
2018-07-06T15:51:19.812Z,1.53
2018-07-06T15:53:48.148Z,1.73
2018-07-06T15:56:16.457Z,1.63
2018-07-06T15:58:44.818Z,1.50
2018-07-06T16:01:13.167Z,1.80
2018-07-06T16:03:41.491Z,1.80
2018-07-06T16:06:09.850Z,1.60
2018-07-06T16:08:38.195Z,1.40
2018-07-06T16:11:06.534Z,1.50
2018-07-06T16:13:34.852Z,1.60
2018-07-06T16:16:03.261Z,1.40
2018-07-06T16:18:31.610Z,1.93
2018-07-06T16:20:59.955Z,1.60
2018-07-06T16:23:28.295Z,1.77
2018-07-06T16:25:56.672Z,1.80
2018-07-06T16:28:25.019Z,2.13
2018-07-06T16:30:53.372Z,1.93
2018-07-06T16:33:21.711Z,1.97
2018-07-06T16:35:50.054Z,1.97
2018-07-06T16:38:18.376Z,1.93
2018-07-06T16:40:46.712Z,1.87
2018-07-06T16:43:15.028Z,1.87
2018-07-06T16:45:43.471Z,1.70
2018-07-06T16:48:11.807Z,2.00
2018-07-06T16:50:40.256Z,1.63
2018-07-06T16:53:08.592Z,2.20
2018-07-06T16:55:36.912Z,1.90
2018-07-06T16:58:05.264Z,2.17
2018-07-06T17:00:33.629Z,1.83
2018-07-06T17:03:01.962Z,1.87
2018-07-06T17:05:30.403Z,1.80
2018-07-06T17:07:58.804Z,2.40
2018-07-06T17:10:27.134Z,2.00
2018-07-06T17:12:55.459Z,2.00
2018-07-06T17:15:23.789Z,2.10
2018-07-06T17:17:52.141Z,2.10
2018-07-06T17:20:20.495Z,2.20
2018-07-06T17:22:48.835Z,2.40
2018-07-06T17:25:17.176Z,2.23
2018-07-06T17:27:45.583Z,1.97
2018-07-06T17:30:13.929Z,1.83
2018-07-06T17:32:42.267Z,2.30
2018-07-06T17:35:10.589Z,2.00
2018-07-06T17:37:39.166Z,2.00
2018-07-06T17:40:07.508Z,2.30
2018-07-06T17:42:35.851Z,2.00
2018-07-06T17:45:04.249Z,1.90
2018-07-06T17:47:32.582Z,2.10
2018-07-06T17:50:00.930Z,2.23
2018-07-06T17:52:29.255Z,2.00
2018-07-06T17:54:57.600Z,2.40
2018-07-06T17:57:25.961Z,2.10
2018-07-06T17:59:54.360Z,2.43
2018-07-06T18:02:22.772Z,2.20
2018-07-06T18:04:51.190Z,2.40
2018-07-06T18:07:19.628Z,1.90
2018-07-06T18:09:47.959Z,2.10
2018-07-06T18:12:16.273Z,2.00
2018-07-06T18:14:44.682Z,1.90
2018-07-06T18:17:13.874Z,1.70
2018-07-06T18:19:42.230Z,1.50
2018-07-06T18:22:10.571Z,1.90
2018-07-06T18:24:38.899Z,1.90
2018-07-06T18:27:07.249Z,1.83
2018-07-06T18:29:35.639Z,2.00
2018-07-06T18:32:03.976Z,2.00
2018-07-06T18:34:32.328Z,1.97
2018-07-06T18:37:00.670Z,1.43
2018-07-06T18:39:29.143Z,1.90
2018-07-06T18:41:57.526Z,1.83
2018-07-06T18:44:25.864Z,1.97
2018-07-06T18:46:54.209Z,2.10
2018-07-06T18:49:22.545Z,2.13
2018-07-06T18:51:50.881Z,1.90
2018-07-06T18:54:19.224Z,1.70
2018-07-06T18:56:47.568Z,1.57
2018-07-06T18:59:15.913Z,1.87
2018-07-06T19:01:44.270Z,1.40
2018-07-06T19:04:12.609Z,1.60
2018-07-06T19:06:40.935Z,1.43
2018-07-06T19:09:09.292Z,1.70
2018-07-06T19:11:37.636Z,1.80
2018-07-06T19:14:05.975Z,1.80
2018-07-06T19:16:34.332Z,1.70
2018-07-06T19:19:02.687Z,1.63
2018-07-06T19:21:31.048Z,1.97
2018-07-06T19:23:59.383Z,1.50
2018-07-06T19:26:27.776Z,1.60
2018-07-06T19:28:56.326Z,1.63
2018-07-06T19:31:24.672Z,2.10
2018-07-06T19:33:53.187Z,2.00
2018-07-06T19:36:21.529Z,1.63
2018-07-06T19:38:50.346Z,1.53
2018-07-06T19:41:18.676Z,1.60
2018-07-06T19:43:47.044Z,1.70
2018-07-06T19:46:15.397Z,1.63
2018-07-06T19:48:43.767Z,2.20
2018-07-06T19:51:12.243Z,1.27
2018-07-06T19:53:40.604Z,1.87
2018-07-06T19:56:08.978Z,1.70
2018-07-06T19:58:37.356Z,1.40
2018-07-06T20:01:05.707Z,2.10
2018-07-06T20:03:34.115Z,1.63
2018-07-06T20:06:02.493Z,2.00
2018-07-06T20:08:30.870Z,1.60
2018-07-06T20:10:59.176Z,1.70
2018-07-06T20:13:27.587Z,1.70
2018-07-06T20:15:55.906Z,1.57
2018-07-06T20:18:24.216Z,1.83
2018-07-06T20:20:52.562Z,1.50
2018-07-06T20:23:21.069Z,1.67
2018-07-06T20:25:49.429Z,1.80
2018-07-06T20:28:17.757Z,1.60
2018-07-06T20:30:46.108Z,1.80
2018-07-06T20:33:14.464Z,1.60
2018-07-06T20:35:42.809Z,1.90
2018-07-06T20:38:11.184Z,1.90
2018-07-06T20:40:39.515Z,1.70
2018-07-06T20:43:07.840Z,1.83
2018-07-06T20:45:36.227Z,2.07
2018-07-06T20:48:04.631Z,1.47
2018-07-06T20:50:33.012Z,1.60
2018-07-06T20:53:01.316Z,1.83
2018-07-06T20:55:29.666Z,1.80
2018-07-06T20:57:58.172Z,2.03
2018-07-06T21:00:26.652Z,1.40
2018-07-06T21:02:55.241Z,2.20
2018-07-06T21:05:23.720Z,2.07
2018-07-06T21:07:52.043Z,1.90
2018-07-06T21:10:20.393Z,1.93
2018-07-06T21:12:48.736Z,1.80
2018-07-06T21:15:17.048Z,1.57
2018-07-06T21:17:45.501Z,1.60
2018-07-06T21:20:14.008Z,1.90
2018-07-06T21:22:42.447Z,1.50
2018-07-06T21:25:11.071Z,1.50
2018-07-06T21:27:39.588Z,2.00
2018-07-06T21:30:08.022Z,2.03
2018-07-06T21:32:36.482Z,2.00
2018-07-06T21:35:04.938Z,1.67
2018-07-06T21:37:33.341Z,1.83
2018-07-06T21:40:01.787Z,1.77
2018-07-06T21:42:30.267Z,1.80
2018-07-06T21:44:58.994Z,1.97
2018-07-06T21:47:27.503Z,1.67
2018-07-06T21:49:55.833Z,1.70
2018-07-06T21:52:24.342Z,1.47
2018-07-06T21:54:52.683Z,1.90
2018-07-06T21:57:21.025Z,1.60
2018-07-06T21:59:49.472Z,1.67
2018-07-06T22:02:18.125Z,1.60
2018-07-06T22:04:47.475Z,1.40
2018-07-06T22:07:16.828Z,1.90
2018-07-06T22:09:45.857Z,1.67
2018-07-06T22:12:14.940Z,1.70
2018-07-06T22:14:43.604Z,1.50
2018-07-06T22:17:12.188Z,1.70
2018-07-06T22:19:40.563Z,1.33
2018-07-06T22:22:08.952Z,1.80
2018-07-06T22:24:37.520Z,1.60
2018-07-06T22:27:06.028Z,1.80
2018-07-06T22:29:34.410Z,1.50
2018-07-06T22:32:02.784Z,1.60
2018-07-06T22:34:31.269Z,1.30
2018-07-06T22:36:59.751Z,1.80
2018-07-06T22:39:28.250Z,1.70
2018-07-06T22:41:56.612Z,1.20
2018-07-06T22:44:24.943Z,1.67
2018-07-06T22:46:53.300Z,1.90
2018-07-06T22:49:21.942Z,1.83
2018-07-06T22:51:50.290Z,1.37
2018-07-06T22:54:18.756Z,1.57
2018-07-06T22:56:47.290Z,1.63
2018-07-06T22:59:15.619Z,1.63
2018-07-06T23:01:43.923Z,1.60
2018-07-06T23:04:12.261Z,1.90
2018-07-06T23:06:40.632Z,1.70
2018-07-06T23:09:09.011Z,1.60
2018-07-06T23:11:37.335Z,1.53
2018-07-06T23:14:05.657Z,1.73
2018-07-06T23:16:33.988Z,2.10
2018-07-06T23:19:02.343Z,1.63
2018-07-06T23:21:30.669Z,2.17
2018-07-06T23:23:59.001Z,1.80
2018-07-06T23:26:27.368Z,1.70
2018-07-06T23:28:55.712Z,1.80
2018-07-06T23:31:24.036Z,1.73
2018-07-06T23:33:52.420Z,1.93
2018-07-06T23:36:20.764Z,1.90
2018-07-06T23:38:49.088Z,2.00
2018-07-06T23:41:17.428Z,2.00
2018-07-06T23:43:45.802Z,2.03
2018-07-06T23:46:14.385Z,1.87
2018-07-06T23:48:42.865Z,1.97
2018-07-06T23:51:11.184Z,1.90
2018-07-06T23:53:39.516Z,1.77
2018-07-06T23:56:08.001Z,2.00
2018-07-06T23:58:36.336Z,1.80
